My Meet Scores
Madisen VanDuyne, Gymnastics X-Calibur - MyMeetScores.com
Top100 | Top Teams | Upcoming Meets | Completed Meets | Latest | Add Scores | Help| Support | Bookmark and Share

Madisen VanDuyne, Gymnastics X-Calibur
Personal Bests
LevelVault BarsBeamFloorAA
39.7259.450 9.1009.37537.650
49.1509.825 9.3759.45037.425
59.2009.375 9.3259.15036.275
Meet Scores
Date Meet Team Session Level Division Vault Bars Beam Floor AA
2020-02-21 Kinetic Classic Gymnastics X-Calibur 03 5 Younger 8.625 56T 9.250 6T 9.325 23T 9.075 27 36.275 26T
2020-02-14 Cereal City Classic Gymnastics X-Calibur 07 5 9-10 yrs 8.850 7T 9.150 2 8.900 6 8.875 4 35.775 5
2020-01-24 King Arthur Invitational Gymnastics X-Calibur 5B 5 JR B 8.625 9 8.900 4T 9.025 4 9.150 2 35.700 4
2020-01-10 St Jude Benefit Meet Gymnastics X-Calibur 2A 5 Jr 9.200 5 9.200 1 9.100 5 8.725 9 36.225 3
2019-12-06 Ultimate Wish Classic Gymnastics X-Calibur 6 5 CH 8.775 7 9.275 1 8.950 7 8.775 9T 35.775 5
2019-10-19 Monster Mash 2019 Gymnastics X-Calibur 2 5 All 8.650 11 9.375 2 9.150 3 8.675 8 35.850 3
2019-03-22 Illinois Gymnastics State Championships Gymnastics X-Calibur 6 4 YT A 8.950 12 9.825 2 9.375 11 9.275 8 37.425 5
2019-02-15 Women's Midwest Open Gymnastics X-Calibur 09 4 Junior B 8.450 4 9.350 3 9.375 3 9.450 2 36.625 3
2019-02-08 Midwest Twisters Harley Meet Womens Gymnastics X-Calibur T09 4 9a 8.575 6 9.450 3 9.250 2 9.250 3 36.525 4
2019-01-25 King Arthur Invitational Gymnastics X-Calibur 11 4 JR B 8.800 5 9.500 2 9.100 8 9.200 3 36.600 3
2019-01-18 2019 Bravo Classic Gymnastics X-Calibur 3B 4 Child 9.150 11T 9.500 2 8.450 19 9.250 5T 36.350 7
2018-11-30 Ultimate Wish Classic Gymnastics X-Calibur 5 4 JR B 8.750 5 9.625 1 9.150 1 9.225 1 36.750 1
2018-03-08 Level 4 & 5 State Gymnastics X-Calibur All 4 Ch B 8.575 11T 9.100 2T 9.350 6T 9.000 12 36.025 4
2018-03-01 Derby Classic 2018 Gymnastics X-Calibur 3A 4 Jr A 7.650 16 9.050 11 9.150 5 8.750 13 34.600 15
2018-02-23 Kinetic Classic Gymnastics X-Calibur 6 4 Younger 8.550 52T 9.200 27T 9.225 13T 8.975 57 35.950 30
2018-02-03 Midwest Games Gymnastics X-Calibur 6 4 Jr A 8.150 10 9.000 6 9.300 5 9.175 6T 35.625 5
2018-01-26 King Arthur Invitational Gymnastics X-Calibur 6 4 JRA 8.550 15 9.150 3 9.150 7 8.850 3 35.700 4
2018-01-12 St Jude Benefit Meet Gymnastics X-Calibur 3A 4 JrA 8.000 14 9.300 4T 9.150 5T 8.650 9 35.100 7
2017-12-01 Ultimate Wish Classic Gymnastics X-Calibur 10 4 Jr A 7.950 13 9.075 2T 8.100 15 8.750 12 33.875 8
2017-03-30 2017 Illinois Level 3 & 5 State Gymnastics X-Calibur All 3 Ch C 9.725 2 9.450 4T 9.100 10T 9.375 4 37.650 3T
2017-02-24 St. Louis Classic Gymnastics X-Calibur B-8 3 Jr A 9.325 3 9.300 1 8.850 2T 9.300 5 36.775 2
2017-02-03 St. Valentines Classic Womens Gymnastics X-Calibur 3A 3 6-8 yrs. 9.475 3 9.425 4 8.900 3 9.025 6 36.825 4
2017-01-13 St Jude Benefit Meet Gymnastics X-Calibur 8A 3 Jr A 9.050 7 8.950 5 8.750 2 9.275 3T 36.025 3
2016-12-02 Ultimate Wish Classic Gymnastics X-Calibur 11 3 Jr A 9.150 5 9.300 3 8.750 9 9.150 6 36.350 4
Get your scores on
a t-shirt, pin, or hoodie

www.lazysuits.com